sensor_id;sensor_type;location;lat;lon;timestamp;P1;durP1;ratioP1;P2;durP2;ratioP2
22270;SDS011;11304;53.520;10.104;2023-10-08T00:01:36;13.55;;;4.30;;
22270;SDS011;11304;53.520;10.104;2023-10-08T00:04:07;14.85;;;3.78;;
22270;SDS011;11304;53.520;10.104;2023-10-08T00:06:33;16.13;;;4.10;;
22270;SDS011;11304;53.520;10.104;2023-10-08T00:09:00;14.30;;;4.50;;
22270;SDS011;11304;53.520;10.104;2023-10-08T00:11:36;17.20;;;4.60;;
22270;SDS011;11304;53.520;10.104;2023-10-08T00:14:03;13.73;;;4.03;;
22270;SDS011;11304;53.520;10.104;2023-10-08T00:16:33;13.18;;;4.45;;
22270;SDS011;11304;53.520;10.104;2023-10-08T00:18:59;12.98;;;4.22;;
22270;SDS011;11304;53.520;10.104;2023-10-08T00:21:33;10.85;;;3.92;;
22270;SDS011;11304;53.520;10.104;2023-10-08T00:24:00;10.60;;;3.70;;
22270;SDS011;11304;53.520;10.104;2023-10-08T00:26:30;11.48;;;4.45;;
22270;SDS011;11304;53.520;10.104;2023-10-08T00:28:57;13.27;;;4.55;;
22270;SDS011;11304;53.520;10.104;2023-10-08T00:31:25;12.30;;;3.78;;
22270;SDS011;11304;53.520;10.104;2023-10-08T00:33:56;14.75;;;3.85;;
22270;SDS011;11304;53.520;10.104;2023-10-08T00:36:22;12.50;;;4.00;;
22270;SDS011;11304;53.520;10.104;2023-10-08T00:38:49;12.85;;;3.70;;
22270;SDS011;11304;53.520;10.104;2023-10-08T00:41:18;14.82;;;3.67;;
22270;SDS011;11304;53.520;10.104;2023-10-08T00:43:46;14.20;;;4.10;;
22270;SDS011;11304;53.520;10.104;2023-10-08T00:46:12;15.52;;;3.22;;
22270;SDS011;11304;53.520;10.104;2023-10-08T00:49:01;10.25;;;3.85;;
22270;SDS011;11304;53.520;10.104;2023-10-08T00:52:03;15.07;;;4.03;;
22270;SDS011;11304;53.520;10.104;2023-10-08T00:54:32;13.45;;;3.85;;
22270;SDS011;11304;53.520;10.104;2023-10-08T00:56:59;11.48;;;3.50;;
22270;SDS011;11304;53.520;10.104;2023-10-08T00:59:33;9.48;;;3.30;;
22270;SDS011;11304;53.520;10.104;2023-10-08T01:02:06;13.77;;;3.83;;
22270;SDS011;11304;53.520;10.104;2023-10-08T01:04:40;10.27;;;3.15;;
22270;SDS011;11304;53.520;10.104;2023-10-08T01:07:09;13.13;;;3.30;;
22270;SDS011;11304;53.520;10.104;2023-10-08T01:09:40;13.20;;;3.95;;
22270;SDS011;11304;53.520;10.104;2023-10-08T01:14:52;11.32;;;2.95;;
22270;SDS011;11304;53.520;10.104;2023-10-08T01:17:22;10.55;;;3.55;;
22270;SDS011;11304;53.520;10.104;2023-10-08T01:19:52;11.40;;;3.58;;
22270;SDS011;11304;53.520;10.104;2023-10-08T01:22:56;11.32;;;3.25;;
22270;SDS011;11304;53.520;10.104;2023-10-08T01:25:23;8.45;;;2.60;;
22270;SDS011;11304;53.520;10.104;2023-10-08T01:27:55;11.30;;;3.00;;
22270;SDS011;11304;53.520;10.104;2023-10-08T01:30:21;12.43;;;3.75;;
22270;SDS011;11304;53.520;10.104;2023-10-08T01:32:48;12.18;;;2.97;;
22270;SDS011;11304;53.520;10.104;2023-10-08T01:35:14;9.30;;;2.72;;
22270;SDS011;11304;53.520;10.104;2023-10-08T01:37:49;7.47;;;2.92;;
22270;SDS011;11304;53.520;10.104;2023-10-08T01:40:16;10.35;;;2.58;;
22270;SDS011;11304;53.520;10.104;2023-10-08T01:42:42;11.90;;;3.03;;
22270;SDS011;11304;53.520;10.104;2023-10-08T01:45:09;10.30;;;2.17;;
22270;SDS011;11304;53.520;10.104;2023-10-08T01:47:38;10.45;;;2.45;;
22270;SDS011;11304;53.520;10.104;2023-10-08T01:50:04;10.35;;;2.53;;
22270;SDS011;11304;53.520;10.104;2023-10-08T01:52:32;8.18;;;2.20;;
22270;SDS011;11304;53.520;10.104;2023-10-08T01:54:59;10.43;;;2.53;;
22270;SDS011;11304;53.520;10.104;2023-10-08T01:57:25;8.48;;;2.45;;
22270;SDS011;11304;53.520;10.104;2023-10-08T01:59:51;11.15;;;2.45;;
22270;SDS011;11304;53.520;10.104;2023-10-08T02:02:19;13.65;;;2.60;;
22270;SDS011;11304;53.520;10.104;2023-10-08T02:04:45;11.85;;;2.20;;
22270;SDS011;11304;53.520;10.104;2023-10-08T02:07:12;9.30;;;2.50;;
22270;SDS011;11304;53.520;10.104;2023-10-08T02:09:38;7.53;;;2.30;;
22270;SDS011;11304;53.520;10.104;2023-10-08T02:12:04;7.80;;;2.63;;
22270;SDS011;11304;53.520;10.104;2023-10-08T02:14:30;7.32;;;2.33;;
22270;SDS011;11304;53.520;10.104;2023-10-08T02:17:00;9.32;;;2.33;;
22270;SDS011;11304;53.520;10.104;2023-10-08T02:19:31;10.90;;;2.10;;
22270;SDS011;11304;53.520;10.104;2023-10-08T02:21:57;10.85;;;2.17;;
22270;SDS011;11304;53.520;10.104;2023-10-08T02:24:24;8.30;;;2.15;;
22270;SDS011;11304;53.520;10.104;2023-10-08T02:26:51;9.80;;;2.13;;
22270;SDS011;11304;53.520;10.104;2023-10-08T02:29:18;8.23;;;2.33;;
22270;SDS011;11304;53.520;10.104;2023-10-08T02:31:44;10.30;;;2.05;;
22270;SDS011;11304;53.520;10.104;2023-10-08T02:34:10;9.55;;;2.05;;
22270;SDS011;11304;53.520;10.104;2023-10-08T02:36:38;7.57;;;1.98;;
22270;SDS011;11304;53.520;10.104;2023-10-08T02:39:05;8.30;;;2.05;;
22270;SDS011;11304;53.520;10.104;2023-10-08T02:41:52;10.43;;;2.00;;
22270;SDS011;11304;53.520;10.104;2023-10-08T02:44:21;9.55;;;2.05;;
22270;SDS011;11304;53.520;10.104;2023-10-08T02:46:49;6.85;;;2.03;;
22270;SDS011;11304;53.520;10.104;2023-10-08T02:49:19;7.75;;;1.95;;
22270;SDS011;11304;53.520;10.104;2023-10-08T02:51:50;6.05;;;2.30;;
22270;SDS011;11304;53.520;10.104;2023-10-08T02:54:17;8.70;;;2.08;;
22270;SDS011;11304;53.520;10.104;2023-10-08T02:56:46;9.25;;;2.08;;
22270;SDS011;11304;53.520;10.104;2023-10-08T02:59:12;9.35;;;2.03;;
22270;SDS011;11304;53.520;10.104;2023-10-08T03:01:39;7.80;;;1.92;;
22270;SDS011;11304;53.520;10.104;2023-10-08T03:04:05;8.32;;;1.67;;
22270;SDS011;11304;53.520;10.104;2023-10-08T03:06:40;5.72;;;1.70;;
22270;SDS011;11304;53.520;10.104;2023-10-08T03:09:06;14.18;;;2.13;;
22270;SDS011;11304;53.520;10.104;2023-10-08T03:11:38;8.82;;;1.80;;
22270;SDS011;11304;53.520;10.104;2023-10-08T03:14:04;8.18;;;1.58;;
22270;SDS011;11304;53.520;10.104;2023-10-08T03:16:39;7.47;;;2.05;;
22270;SDS011;11304;53.520;10.104;2023-10-08T03:19:06;10.30;;;2.00;;
22270;SDS011;11304;53.520;10.104;2023-10-08T03:21:33;12.05;;;2.35;;
22270;SDS011;11304;53.520;10.104;2023-10-08T03:26:37;7.95;;;2.30;;
22270;SDS011;11304;53.520;10.104;2023-10-08T03:29:04;10.18;;;1.70;;
22270;SDS011;11304;53.520;10.104;2023-10-08T03:31:40;6.18;;;1.55;;
22270;SDS011;11304;53.520;10.104;2023-10-08T03:34:16;8.63;;;1.67;;
22270;SDS011;11304;53.520;10.104;2023-10-08T03:36:44;8.00;;;1.70;;
22270;SDS011;11304;53.520;10.104;2023-10-08T03:39:11;5.53;;;1.60;;
22270;SDS011;11304;53.520;10.104;2023-10-08T03:41:41;5.75;;;1.33;;
22270;SDS011;11304;53.520;10.104;2023-10-08T03:44:07;7.53;;;1.45;;
22270;SDS011;11304;53.520;10.104;2023-10-08T03:46:41;6.78;;;1.70;;
22270;SDS011;11304;53.520;10.104;2023-10-08T03:49:08;6.00;;;1.25;;
22270;SDS011;11304;53.520;10.104;2023-10-08T03:51:52;6.95;;;1.70;;
22270;SDS011;11304;53.520;10.104;2023-10-08T03:56:52;6.75;;;1.58;;
22270;SDS011;11304;53.520;10.104;2023-10-08T03:59:18;8.65;;;1.70;;
22270;SDS011;11304;53.520;10.104;2023-10-08T04:02:00;6.18;;;1.15;;
22270;SDS011;11304;53.520;10.104;2023-10-08T04:04:42;7.15;;;1.88;;
22270;SDS011;11304;53.520;10.104;2023-10-08T04:07:22;4.40;;;1.40;;
22270;SDS011;11304;53.520;10.104;2023-10-08T04:09:57;3.85;;;1.75;;
22270;SDS011;11304;53.520;10.104;2023-10-08T04:12:36;7.82;;;1.33;;
22270;SDS011;11304;53.520;10.104;2023-10-08T04:15:09;9.52;;;1.55;;
22270;SDS011;11304;53.520;10.104;2023-10-08T04:17:37;10.43;;;1.48;;
22270;SDS011;11304;53.520;10.104;2023-10-08T04:20:10;6.93;;;1.40;;
22270;SDS011;11304;53.520;10.104;2023-10-08T04:23:12;4.75;;;1.30;;
22270;SDS011;11304;53.520;10.104;2023-10-08T04:25:46;4.60;;;1.42;;
22270;SDS011;11304;53.520;10.104;2023-10-08T04:28:19;13.45;;;2.03;;
22270;SDS011;11304;53.520;10.104;2023-10-08T04:30:46;5.57;;;1.23;;
22270;SDS011;11304;53.520;10.104;2023-10-08T04:33:18;8.35;;;1.50;;
22270;SDS011;11304;53.520;10.104;2023-10-08T04:35:44;5.75;;;1.33;;
22270;SDS011;11304;53.520;10.104;2023-10-08T04:38:21;4.30;;;1.42;;
22270;SDS011;11304;53.520;10.104;2023-10-08T04:40:48;8.80;;;1.92;;
22270;SDS011;11304;53.520;10.104;2023-10-08T04:43:16;8.15;;;1.42;;
22270;SDS011;11304;53.520;10.104;2023-10-08T04:46:02;4.63;;;1.20;;
22270;SDS011;11304;53.520;10.104;2023-10-08T04:48:51;4.22;;;1.20;;
22270;SDS011;11304;53.520;10.104;2023-10-08T04:51:17;5.57;;;1.42;;
22270;SDS011;11304;53.520;10.104;2023-10-08T04:53:47;3.33;;;1.10;;
22270;SDS011;11304;53.520;10.104;2023-10-08T04:56:14;9.70;;;1.20;;
22270;SDS011;11304;53.520;10.104;2023-10-08T04:58:48;7.53;;;1.58;;
22270;SDS011;11304;53.520;10.104;2023-10-08T05:01:14;3.28;;;1.15;;
22270;SDS011;11304;53.520;10.104;2023-10-08T05:03:49;6.10;;;1.42;;
22270;SDS011;11304;53.520;10.104;2023-10-08T05:06:22;6.90;;;1.67;;
22270;SDS011;11304;53.520;10.104;2023-10-08T05:09:12;9.50;;;1.58;;
22270;SDS011;11304;53.520;10.104;2023-10-08T05:11:45;6.93;;;1.42;;
22270;SDS011;11304;53.520;10.104;2023-10-08T05:14:22;3.88;;;1.30;;
22270;SDS011;11304;53.520;10.104;2023-10-08T05:17:01;5.28;;;1.48;;
22270;SDS011;11304;53.520;10.104;2023-10-08T05:19:47;8.02;;;1.58;;
22270;SDS011;11304;53.520;10.104;2023-10-08T05:22:21;4.22;;;1.25;;
22270;SDS011;11304;53.520;10.104;2023-10-08T05:24:54;4.75;;;1.17;;
22270;SDS011;11304;53.520;10.104;2023-10-08T05:27:35;6.35;;;1.73;;
22270;SDS011;11304;53.520;10.104;2023-10-08T05:30:17;6.97;;;1.60;;
22270;SDS011;11304;53.520;10.104;2023-10-08T05:32:46;4.47;;;1.20;;
22270;SDS011;11304;53.520;10.104;2023-10-08T05:35:28;5.32;;;1.20;;
22270;SDS011;11304;53.520;10.104;2023-10-08T05:38:09;9.20;;;2.05;;
22270;SDS011;11304;53.520;10.104;2023-10-08T05:43:24;7.28;;;1.85;;
22270;SDS011;11304;53.520;10.104;2023-10-08T05:45:59;5.90;;;1.60;;
22270;SDS011;11304;53.520;10.104;2023-10-08T05:48:45;3.75;;;1.35;;
22270;SDS011;11304;53.520;10.104;2023-10-08T05:51:26;7.57;;;1.48;;
22270;SDS011;11304;53.520;10.104;2023-10-08T05:54:11;4.75;;;1.48;;
22270;SDS011;11304;53.520;10.104;2023-10-08T05:59:45;3.72;;;1.33;;
22270;SDS011;11304;53.520;10.104;2023-10-08T06:02:17;10.65;;;2.15;;
22270;SDS011;11304;53.520;10.104;2023-10-08T06:04:52;7.50;;;1.48;;
22270;SDS011;11304;53.520;10.104;2023-10-08T06:10:27;5.82;;;1.60;;
22270;SDS011;11304;53.520;10.104;2023-10-08T06:15:46;5.20;;;1.48;;
22270;SDS011;11304;53.520;10.104;2023-10-08T06:18:25;5.75;;;1.30;;
22270;SDS011;11304;53.520;10.104;2023-10-08T06:20:54;6.53;;;1.40;;
22270;SDS011;11304;53.520;10.104;2023-10-08T06:23:21;4.65;;;1.73;;
22270;SDS011;11304;53.520;10.104;2023-10-08T06:25:51;5.03;;;1.50;;
22270;SDS011;11304;53.520;10.104;2023-10-08T06:28:31;5.72;;;1.10;;
22270;SDS011;11304;53.520;10.104;2023-10-08T06:31:00;5.50;;;1.50;;
22270;SDS011;11304;53.520;10.104;2023-10-08T06:33:28;10.10;;;1.48;;
22270;SDS011;11304;53.520;10.104;2023-10-08T06:35:58;6.43;;;1.45;;
22270;SDS011;11304;53.520;10.104;2023-10-08T06:38:30;8.68;;;1.88;;
22270;SDS011;11304;53.520;10.104;2023-10-08T06:41:07;9.65;;;1.80;;
22270;SDS011;11304;53.520;10.104;2023-10-08T06:43:40;7.63;;;2.05;;
22270;SDS011;11304;53.520;10.104;2023-10-08T06:46:27;6.40;;;1.33;;
22270;SDS011;11304;53.520;10.104;2023-10-08T06:48:55;7.30;;;1.40;;
22270;SDS011;11304;53.520;10.104;2023-10-08T06:51:22;9.55;;;1.52;;
22270;SDS011;11304;53.520;10.104;2023-10-08T06:53:51;6.18;;;1.50;;
22270;SDS011;11304;53.520;10.104;2023-10-08T06:56:19;7.35;;;1.63;;
22270;SDS011;11304;53.520;10.104;2023-10-08T06:58:45;9.15;;;1.50;;
22270;SDS011;11304;53.520;10.104;2023-10-08T07:01:14;5.32;;;1.42;;
22270;SDS011;11304;53.520;10.104;2023-10-08T07:03:46;4.93;;;1.35;;
22270;SDS011;11304;53.520;10.104;2023-10-08T07:06:14;7.57;;;1.73;;
22270;SDS011;11304;53.520;10.104;2023-10-08T07:08:56;6.38;;;1.55;;
22270;SDS011;11304;53.520;10.104;2023-10-08T07:11:24;6.20;;;1.80;;
22270;SDS011;11304;53.520;10.104;2023-10-08T07:13:52;8.30;;;1.40;;
22270;SDS011;11304;53.520;10.104;2023-10-08T07:16:18;7.63;;;1.60;;
22270;SDS011;11304;53.520;10.104;2023-10-08T07:18:46;7.85;;;1.33;;
22270;SDS011;11304;53.520;10.104;2023-10-08T07:21:20;5.88;;;1.20;;
22270;SDS011;11304;53.520;10.104;2023-10-08T07:23:54;4.43;;;1.10;;
22270;SDS011;11304;53.520;10.104;2023-10-08T07:26:29;9.07;;;1.75;;
22270;SDS011;11304;53.520;10.104;2023-10-08T07:29:06;10.25;;;1.63;;
22270;SDS011;11304;53.520;10.104;2023-10-08T07:31:37;8.73;;;2.03;;
22270;SDS011;11304;53.520;10.104;2023-10-08T07:34:23;11.27;;;1.30;;
22270;SDS011;11304;53.520;10.104;2023-10-08T07:36:49;6.70;;;1.80;;
22270;SDS011;11304;53.520;10.104;2023-10-08T07:39:16;8.48;;;1.90;;
22270;SDS011;11304;53.520;10.104;2023-10-08T07:42:02;5.68;;;1.40;;
22270;SDS011;11304;53.520;10.104;2023-10-08T07:44:30;7.30;;;1.70;;
22270;SDS011;11304;53.520;10.104;2023-10-08T07:46:56;8.18;;;1.50;;
22270;SDS011;11304;53.520;10.104;2023-10-08T07:49:23;5.50;;;1.30;;
22270;SDS011;11304;53.520;10.104;2023-10-08T07:51:56;5.43;;;1.50;;
22270;SDS011;11304;53.520;10.104;2023-10-08T07:54:23;8.90;;;1.70;;
22270;SDS011;11304;53.520;10.104;2023-10-08T07:56:52;4.80;;;1.23;;
22270;SDS011;11304;53.520;10.104;2023-10-08T07:59:34;7.10;;;1.50;;
22270;SDS011;11304;53.520;10.104;2023-10-08T08:02:03;7.63;;;1.13;;
22270;SDS011;11304;53.520;10.104;2023-10-08T08:04:35;7.07;;;1.73;;
22270;SDS011;11304;53.520;10.104;2023-10-08T08:07:01;7.75;;;1.25;;
22270;SDS011;11304;53.520;10.104;2023-10-08T08:09:29;6.75;;;1.50;;
22270;SDS011;11304;53.520;10.104;2023-10-08T08:11:58;5.43;;;1.30;;
22270;SDS011;11304;53.520;10.104;2023-10-08T08:14:24;9.10;;;1.83;;
22270;SDS011;11304;53.520;10.104;2023-10-08T08:16:50;5.78;;;1.20;;
22270;SDS011;11304;53.520;10.104;2023-10-08T08:19:17;5.70;;;1.30;;
22270;SDS011;11304;53.520;10.104;2023-10-08T08:21:49;5.65;;;1.30;;
22270;SDS011;11304;53.520;10.104;2023-10-08T08:24:17;8.20;;;1.55;;
22270;SDS011;11304;53.520;10.104;2023-10-08T08:26:56;3.88;;;1.05;;
22270;SDS011;11304;53.520;10.104;2023-10-08T08:29:37;5.50;;;1.40;;
22270;SDS011;11304;53.520;10.104;2023-10-08T08:32:13;4.60;;;1.02;;
22270;SDS011;11304;53.520;10.104;2023-10-08T08:34:46;6.22;;;1.48;;
22270;SDS011;11304;53.520;10.104;2023-10-08T08:37:15;9.45;;;1.20;;
22270;SDS011;11304;53.520;10.104;2023-10-08T08:39:41;4.22;;;1.08;;
22270;SDS011;11304;53.520;10.104;2023-10-08T08:42:07;4.70;;;1.23;;
22270;SDS011;11304;53.520;10.104;2023-10-08T08:44:38;8.13;;;1.65;;
22270;SDS011;11304;53.520;10.104;2023-10-08T08:47:11;8.35;;;1.48;;
22270;SDS011;11304;53.520;10.104;2023-10-08T08:49:42;4.55;;;1.30;;
22270;SDS011;11304;53.520;10.104;2023-10-08T08:54:38;4.57;;;1.10;;
22270;SDS011;11304;53.520;10.104;2023-10-08T08:57:04;5.18;;;1.35;;
22270;SDS011;11304;53.520;10.104;2023-10-08T08:59:31;4.82;;;1.40;;
22270;SDS011;11304;53.520;10.104;2023-10-08T09:02:01;5.60;;;1.50;;
22270;SDS011;11304;53.520;10.104;2023-10-08T09:04:32;3.65;;;1.02;;
22270;SDS011;11304;53.520;10.104;2023-10-08T09:07:01;4.47;;;1.30;;
22270;SDS011;11304;53.520;10.104;2023-10-08T09:09:35;6.80;;;1.20;;
22270;SDS011;11304;53.520;10.104;2023-10-08T09:12:10;9.32;;;1.33;;
22270;SDS011;11304;53.520;10.104;2023-10-08T09:14:36;2.63;;;0.80;;
22270;SDS011;11304;53.520;10.104;2023-10-08T09:17:03;4.68;;;1.08;;
22270;SDS011;11304;53.520;10.104;2023-10-08T09:19:30;5.07;;;1.10;;
22270;SDS011;11304;53.520;10.104;2023-10-08T09:22:08;6.25;;;1.60;;
22270;SDS011;11304;53.520;10.104;2023-10-08T09:24:40;3.60;;;1.20;;
22270;SDS011;11304;53.520;10.104;2023-10-08T09:27:08;2.90;;;1.33;;
22270;SDS011;11304;53.520;10.104;2023-10-08T09:29:43;4.32;;;1.35;;
22270;SDS011;11304;53.520;10.104;2023-10-08T09:32:10;5.82;;;1.15;;
22270;SDS011;11304;53.520;10.104;2023-10-08T09:34:38;3.50;;;0.95;;
22270;SDS011;11304;53.520;10.104;2023-10-08T09:37:05;2.63;;;1.02;;
22270;SDS011;11304;53.520;10.104;2023-10-08T09:39:32;4.05;;;1.00;;
22270;SDS011;11304;53.520;10.104;2023-10-08T09:42:01;7.43;;;1.17;;
22270;SDS011;11304;53.520;10.104;2023-10-08T09:44:28;6.18;;;1.10;;
22270;SDS011;11304;53.520;10.104;2023-10-08T09:47:05;3.35;;;0.90;;
22270;SDS011;11304;53.520;10.104;2023-10-08T09:49:33;4.20;;;1.30;;
22270;SDS011;11304;53.520;10.104;2023-10-08T09:52:23;4.80;;;0.90;;
22270;SDS011;11304;53.520;10.104;2023-10-08T09:55:00;2.70;;;0.82;;
22270;SDS011;11304;53.520;10.104;2023-10-08T09:57:30;4.55;;;1.05;;
22270;SDS011;11304;53.520;10.104;2023-10-08T09:59:55;3.95;;;0.90;;
22270;SDS011;11304;53.520;10.104;2023-10-08T10:02:24;4.53;;;0.80;;
22270;SDS011;11304;53.520;10.104;2023-10-08T10:04:52;5.80;;;1.23;;
22270;SDS011;11304;53.520;10.104;2023-10-08T10:07:19;5.65;;;1.10;;
22270;SDS011;11304;53.520;10.104;2023-10-08T10:09:49;3.92;;;1.25;;
22270;SDS011;11304;53.520;10.104;2023-10-08T10:14:51;4.57;;;1.00;;
22270;SDS011;11304;53.520;10.104;2023-10-08T10:17:21;4.95;;;1.17;;
22270;SDS011;11304;53.520;10.104;2023-10-08T10:19:57;2.88;;;0.90;;
22270;SDS011;11304;53.520;10.104;2023-10-08T10:22:29;6.53;;;0.90;;
22270;SDS011;11304;53.520;10.104;2023-10-08T10:24:58;5.88;;;1.38;;
22270;SDS011;11304;53.520;10.104;2023-10-08T10:27:25;3.00;;;1.20;;
22270;SDS011;11304;53.520;10.104;2023-10-08T10:29:51;4.35;;;0.93;;
22270;SDS011;11304;53.520;10.104;2023-10-08T10:32:32;5.35;;;1.38;;
22270;SDS011;11304;53.520;10.104;2023-10-08T10:34:59;3.03;;;1.05;;
22270;SDS011;11304;53.520;10.104;2023-10-08T10:37:28;4.80;;;1.10;;
22270;SDS011;11304;53.520;10.104;2023-10-08T10:40:06;3.05;;;1.13;;
22270;SDS011;11304;53.520;10.104;2023-10-08T10:42:36;4.43;;;0.95;;
22270;SDS011;11304;53.520;10.104;2023-10-08T10:45:11;4.47;;;0.90;;
22270;SDS011;11304;53.520;10.104;2023-10-08T10:47:58;2.83;;;1.02;;
22270;SDS011;11304;53.520;10.104;2023-10-08T10:50:37;2.40;;;0.80;;
22270;SDS011;11304;53.520;10.104;2023-10-08T10:53:13;4.45;;;0.93;;
22270;SDS011;11304;53.520;10.104;2023-10-08T10:55:42;3.97;;;0.80;;
22270;SDS011;11304;53.520;10.104;2023-10-08T10:58:24;2.63;;;0.98;;
22270;SDS011;11304;53.520;10.104;2023-10-08T11:00:51;12.25;;;1.48;;
22270;SDS011;11304;53.520;10.104;2023-10-08T11:03:24;5.47;;;1.10;;
22270;SDS011;11304;53.520;10.104;2023-10-08T11:05:57;2.53;;;1.00;;
22270;SDS011;11304;53.520;10.104;2023-10-08T11:08:25;2.63;;;0.98;;
22270;SDS011;11304;53.520;10.104;2023-10-08T11:10:59;6.68;;;1.20;;
22270;SDS011;11304;53.520;10.104;2023-10-08T11:13:30;5.28;;;1.30;;
22270;SDS011;11304;53.520;10.104;2023-10-08T11:16:06;4.10;;;1.27;;
22270;SDS011;11304;53.520;10.104;2023-10-08T11:18:34;5.15;;;1.17;;
22270;SDS011;11304;53.520;10.104;2023-10-08T11:21:07;3.28;;;1.10;;
22270;SDS011;11304;53.520;10.104;2023-10-08T11:23:41;4.68;;;1.00;;
22270;SDS011;11304;53.520;10.104;2023-10-08T11:26:08;3.78;;;1.13;;
22270;SDS011;11304;53.520;10.104;2023-10-08T11:28:35;4.32;;;1.10;;
22270;SDS011;11304;53.520;10.104;2023-10-08T11:31:11;4.45;;;1.27;;
22270;SDS011;11304;53.520;10.104;2023-10-08T11:33:41;2.65;;;1.15;;
22270;SDS011;11304;53.520;10.104;2023-10-08T11:36:16;2.97;;;0.98;;
22270;SDS011;11304;53.520;10.104;2023-10-08T11:38:47;2.75;;;0.90;;
22270;SDS011;11304;53.520;10.104;2023-10-08T11:41:14;4.57;;;1.10;;
22270;SDS011;11304;53.520;10.104;2023-10-08T11:43:56;3.00;;;1.15;;
22270;SDS011;11304;53.520;10.104;2023-10-08T11:48:53;3.50;;;1.13;;
22270;SDS011;11304;53.520;10.104;2023-10-08T11:51:23;2.58;;;1.13;;
22270;SDS011;11304;53.520;10.104;2023-10-08T11:53:50;4.28;;;1.20;;
22270;SDS011;11304;53.520;10.104;2023-10-08T11:56:17;2.67;;;1.02;;
22270;SDS011;11304;53.520;10.104;2023-10-08T11:58:46;4.68;;;0.90;;
22270;SDS011;11304;53.520;10.104;2023-10-08T12:01:12;3.92;;;1.02;;
22270;SDS011;11304;53.520;10.104;2023-10-08T12:03:41;2.78;;;1.08;;
22270;SDS011;11304;53.520;10.104;2023-10-08T12:06:09;2.87;;;1.20;;
22270;SDS011;11304;53.520;10.104;2023-10-08T12:08:41;2.83;;;1.02;;
22270;SDS011;11304;53.520;10.104;2023-10-08T12:11:10;2.83;;;1.10;;
22270;SDS011;11304;53.520;10.104;2023-10-08T12:13:39;4.22;;;1.08;;
22270;SDS011;11304;53.520;10.104;2023-10-08T12:16:15;2.33;;;1.02;;
22270;SDS011;11304;53.520;10.104;2023-10-08T12:18:46;5.05;;;1.10;;
22270;SDS011;11304;53.520;10.104;2023-10-08T12:21:22;4.60;;;1.10;;
22270;SDS011;11304;53.520;10.104;2023-10-08T12:23:49;5.60;;;1.10;;
22270;SDS011;11304;53.520;10.104;2023-10-08T12:26:16;3.17;;;1.20;;
22270;SDS011;11304;53.520;10.104;2023-10-08T12:28:44;2.15;;;0.93;;
22270;SDS011;11304;53.520;10.104;2023-10-08T12:31:11;4.18;;;1.20;;
22270;SDS011;11304;53.520;10.104;2023-10-08T12:33:37;2.60;;;0.90;;
22270;SDS011;11304;53.520;10.104;2023-10-08T12:36:05;2.50;;;1.00;;
22270;SDS011;11304;53.520;10.104;2023-10-08T12:38:42;3.05;;;1.08;;
22270;SDS011;11304;53.520;10.104;2023-10-08T12:43:36;3.53;;;1.20;;
22270;SDS011;11304;53.520;10.104;2023-10-08T12:46:03;2.42;;;1.15;;
22270;SDS011;11304;53.520;10.104;2023-10-08T12:48:35;3.58;;;1.10;;
22270;SDS011;11304;53.520;10.104;2023-10-08T12:51:02;4.38;;;1.50;;
22270;SDS011;11304;53.520;10.104;2023-10-08T12:53:30;3.40;;;1.23;;
22270;SDS011;11304;53.520;10.104;2023-10-08T12:56:02;3.45;;;1.27;;
22270;SDS011;11304;53.520;10.104;2023-10-08T12:58:35;3.20;;;1.23;;
22270;SDS011;11304;53.520;10.104;2023-10-08T13:01:09;4.63;;;1.30;;
22270;SDS011;11304;53.520;10.104;2023-10-08T13:03:36;5.80;;;1.13;;
22270;SDS011;11304;53.520;10.104;2023-10-08T13:06:12;3.50;;;1.00;;
22270;SDS011;11304;53.520;10.104;2023-10-08T13:08:50;2.80;;;1.00;;
22270;SDS011;11304;53.520;10.104;2023-10-08T13:11:18;2.30;;;1.10;;
22270;SDS011;11304;53.520;10.104;2023-10-08T13:13:50;2.47;;;1.00;;
22270;SDS011;11304;53.520;10.104;2023-10-08T13:16:20;2.60;;;1.13;;
22270;SDS011;11304;53.520;10.104;2023-10-08T13:18:49;2.00;;;0.80;;
22270;SDS011;11304;53.520;10.104;2023-10-08T13:21:15;2.25;;;0.90;;
22270;SDS011;11304;53.520;10.104;2023-10-08T13:23:41;4.22;;;1.13;;
22270;SDS011;11304;53.520;10.104;2023-10-08T13:26:07;2.72;;;1.15;;
22270;SDS011;11304;53.520;10.104;2023-10-08T13:28:36;2.63;;;1.25;;
22270;SDS011;11304;53.520;10.104;2023-10-08T13:33:35;3.35;;;1.05;;
22270;SDS011;11304;53.520;10.104;2023-10-08T13:36:04;2.42;;;1.00;;
22270;SDS011;11304;53.520;10.104;2023-10-08T13:38:38;3.90;;;1.20;;
22270;SDS011;11304;53.520;10.104;2023-10-08T13:41:12;3.03;;;1.10;;
22270;SDS011;11304;53.520;10.104;2023-10-08T13:43:44;2.72;;;0.98;;
22270;SDS011;11304;53.520;10.104;2023-10-08T13:46:11;3.25;;;1.13;;
22270;SDS011;11304;53.520;10.104;2023-10-08T13:48:45;3.17;;;0.95;;
22270;SDS011;11304;53.520;10.104;2023-10-08T13:51:13;2.25;;;0.98;;
22270;SDS011;11304;53.520;10.104;2023-10-08T13:53:40;3.63;;;0.90;;
22270;SDS011;11304;53.520;10.104;2023-10-08T13:56:10;3.03;;;1.00;;
22270;SDS011;11304;53.520;10.104;2023-10-08T13:58:37;3.42;;;1.20;;
22270;SDS011;11304;53.520;10.104;2023-10-08T14:01:11;5.47;;;1.30;;
22270;SDS011;11304;53.520;10.104;2023-10-08T14:03:47;5.07;;;1.13;;
22270;SDS011;11304;53.520;10.104;2023-10-08T14:06:19;4.35;;;1.40;;
22270;SDS011;11304;53.520;10.104;2023-10-08T14:08:46;3.37;;;1.23;;
22270;SDS011;11304;53.520;10.104;2023-10-08T14:11:21;3.90;;;1.30;;
22270;SDS011;11304;53.520;10.104;2023-10-08T14:13:51;2.25;;;0.98;;
22270;SDS011;11304;53.520;10.104;2023-10-08T14:16:17;4.47;;;1.15;;
22270;SDS011;11304;53.520;10.104;2023-10-08T14:18:48;2.45;;;0.90;;
22270;SDS011;11304;53.520;10.104;2023-10-08T14:21:19;3.58;;;0.95;;
22270;SDS011;11304;53.520;10.104;2023-10-08T14:23:51;3.65;;;1.45;;
22270;SDS011;11304;53.520;10.104;2023-10-08T14:26:21;3.80;;;2.25;;
22270;SDS011;11304;53.520;10.104;2023-10-08T14:28:48;6.30;;;2.88;;
22270;SDS011;11304;53.520;10.104;2023-10-08T14:31:23;7.05;;;4.07;;
22270;SDS011;11304;53.520;10.104;2023-10-08T14:33:51;5.80;;;2.60;;
22270;SDS011;11304;53.520;10.104;2023-10-08T14:36:24;3.20;;;2.00;;
22270;SDS011;11304;53.520;10.104;2023-10-08T14:39:09;3.95;;;1.63;;
22270;SDS011;11304;53.520;10.104;2023-10-08T14:41:54;4.63;;;1.42;;
22270;SDS011;11304;53.520;10.104;2023-10-08T14:44:38;3.65;;;1.02;;
22270;SDS011;11304;53.520;10.104;2023-10-08T14:47:04;4.38;;;1.23;;
22270;SDS011;11304;53.520;10.104;2023-10-08T14:49:31;1.73;;;0.82;;
22270;SDS011;11304;53.520;10.104;2023-10-08T14:51:57;3.28;;;1.20;;
22270;SDS011;11304;53.520;10.104;2023-10-08T14:54:23;4.10;;;1.02;;
22270;SDS011;11304;53.520;10.104;2023-10-08T14:56:50;2.60;;;0.85;;
22270;SDS011;11304;53.520;10.104;2023-10-08T14:59:16;3.58;;;1.40;;
22270;SDS011;11304;53.520;10.104;2023-10-08T15:01:43;5.35;;;2.28;;
22270;SDS011;11304;53.520;10.104;2023-10-08T15:04:09;4.72;;;1.30;;
22270;SDS011;11304;53.520;10.104;2023-10-08T15:06:36;3.08;;;1.23;;
22270;SDS011;11304;53.520;10.104;2023-10-08T15:09:04;3.28;;;1.00;;
22270;SDS011;11304;53.520;10.104;2023-10-08T15:11:30;1.65;;;0.90;;
22270;SDS011;11304;53.520;10.104;2023-10-08T15:13:56;2.67;;;0.98;;
22270;SDS011;11304;53.520;10.104;2023-10-08T15:16:22;2.83;;;1.20;;
22270;SDS011;11304;53.520;10.104;2023-10-08T15:18:49;4.45;;;1.55;;
22270;SDS011;11304;53.520;10.104;2023-10-08T15:21:16;3.33;;;1.33;;
22270;SDS011;11304;53.520;10.104;2023-10-08T15:23:42;3.65;;;0.90;;
22270;SDS011;11304;53.520;10.104;2023-10-08T15:26:10;4.22;;;1.00;;
22270;SDS011;11304;53.520;10.104;2023-10-08T15:28:37;4.53;;;1.90;;